createdAt,value
2022-10-13T00:00:39.003Z,19.27
2022-10-13T00:03:05.870Z,24.40
2022-10-13T00:05:32.524Z,22.50
2022-10-13T00:07:59.413Z,22.17
2022-10-13T00:10:27.291Z,21.50
2022-10-13T00:12:53.986Z,22.67
2022-10-13T00:15:20.662Z,25.03
2022-10-13T00:17:47.313Z,17.60
2022-10-13T00:20:13.954Z,17.93
2022-10-13T00:22:40.584Z,24.97
2022-10-13T00:25:07.887Z,23.83
2022-10-13T00:27:34.512Z,18.17
2022-10-13T00:30:01.120Z,21.40
2022-10-13T00:32:27.808Z,24.13
2022-10-13T00:34:54.384Z,20.40
2022-10-13T00:37:20.983Z,21.50
2022-10-13T00:39:47.734Z,21.77
2022-10-13T00:42:14.282Z,21.60
2022-10-13T00:45:05.137Z,26.77
2022-10-13T00:47:43.477Z,19.93
2022-10-13T00:50:16.537Z,24.47
2022-10-13T00:52:44.511Z,32.40
2022-10-13T00:55:15.910Z,23.37
2022-10-13T00:57:46.195Z,27.40
2022-10-13T01:00:13.717Z,18.60
2022-10-13T01:02:40.386Z,22.60
2022-10-13T01:05:08.218Z,25.40
2022-10-13T01:07:35.816Z,27.27
2022-10-13T01:10:04.172Z,27.67
2022-10-13T01:12:50.353Z,25.07
2022-10-13T01:15:33.445Z,27.93
2022-10-13T01:18:02.795Z,24.60
2022-10-13T01:21:00.567Z,27.63
2022-10-13T01:23:29.857Z,30.03
2022-10-13T01:26:23.828Z,25.33
2022-10-13T01:29:10.472Z,27.87
2022-10-13T01:31:39.991Z,28.40
2022-10-13T01:34:12.020Z,27.97
2022-10-13T01:37:08.236Z,30.80
2022-10-13T01:39:53.234Z,23.80
2022-10-13T01:42:29.050Z,30.00
2022-10-13T01:45:00.455Z,28.90
2022-10-13T01:47:28.744Z,22.70
2022-10-13T01:49:57.145Z,26.27
2022-10-13T01:52:27.770Z,25.37
2022-10-13T01:54:54.887Z,30.03
2022-10-13T01:57:34.821Z,26.57
2022-10-13T02:00:05.897Z,26.60
2022-10-13T02:02:55.924Z,28.93
2022-10-13T02:05:36.421Z,23.63
2022-10-13T02:08:05.712Z,22.70
2022-10-13T02:10:46.369Z,23.73
2022-10-13T02:13:16.285Z,26.20
2022-10-13T02:15:48.365Z,22.73
2022-10-13T02:18:18.391Z,23.20
2022-10-13T02:20:45.916Z,22.77
2022-10-13T02:23:16.385Z,24.60
2022-10-13T02:25:44.376Z,25.67
2022-10-13T02:28:12.987Z,23.83
2022-10-13T02:30:41.074Z,20.97
2022-10-13T02:33:08.219Z,25.17
2022-10-13T02:35:35.265Z,25.20
2022-10-13T02:38:01.957Z,20.80
2022-10-13T02:40:28.607Z,22.20
2022-10-13T02:42:55.221Z,20.97
2022-10-13T02:45:22.167Z,25.87
2022-10-13T02:47:49.307Z,17.00
2022-10-13T02:50:17.071Z,24.23
2022-10-13T02:52:43.897Z,23.60
2022-10-13T02:55:10.769Z,20.93
2022-10-13T02:57:37.432Z,23.20
2022-10-13T03:00:05.709Z,21.60
2022-10-13T03:02:32.570Z,20.83
2022-10-13T03:04:59.221Z,30.80
2022-10-13T03:07:25.946Z,19.23
2022-10-13T03:09:52.918Z,18.80
2022-10-13T03:12:19.830Z,19.87
2022-10-13T03:14:46.690Z,21.63
2022-10-13T03:17:13.703Z,23.07
2022-10-13T03:19:40.459Z,23.33
2022-10-13T03:22:07.132Z,24.43
2022-10-13T03:24:33.959Z,19.30
2022-10-13T03:27:00.669Z,20.63
2022-10-13T03:29:27.353Z,19.10
2022-10-13T03:31:54.272Z,23.43
2022-10-13T03:34:20.857Z,28.10
2022-10-13T03:36:47.832Z,20.87
2022-10-13T03:39:15.115Z,27.17
2022-10-13T03:41:42.256Z,24.43
2022-10-13T03:44:12.093Z,34.40
2022-10-13T03:46:38.854Z,20.60
2022-10-13T03:49:06.010Z,23.20
2022-10-13T03:51:32.763Z,23.30
2022-10-13T03:53:59.377Z,32.03
2022-10-13T03:56:27.497Z,20.70
2022-10-13T03:58:56.816Z,23.77
2022-10-13T04:01:25.765Z,20.30
2022-10-13T04:03:54.556Z,17.17
2022-10-13T04:06:22.085Z,22.07
2022-10-13T04:08:49.560Z,25.17
2022-10-13T04:11:16.798Z,22.93
2022-10-13T04:13:44.242Z,22.60
2022-10-13T04:16:21.599Z,22.57
2022-10-13T04:18:54.516Z,17.33
2022-10-13T04:21:22.566Z,17.87
2022-10-13T04:23:49.293Z,21.00
2022-10-13T04:26:18.615Z,19.00
2022-10-13T04:28:47.178Z,25.43
2022-10-13T04:31:13.934Z,24.90
2022-10-13T04:33:41.022Z,22.40
2022-10-13T04:36:10.241Z,14.87
2022-10-13T04:38:37.013Z,38.50
2022-10-13T04:41:05.223Z,19.10
2022-10-13T04:43:33.022Z,22.33
2022-10-13T04:46:08.236Z,22.63
2022-10-13T04:48:34.909Z,19.50
2022-10-13T04:51:07.785Z,18.60
2022-10-13T04:53:34.869Z,19.33
2022-10-13T04:56:08.365Z,21.13
2022-10-13T04:58:36.030Z,22.63
2022-10-13T05:01:05.196Z,20.47
2022-10-13T05:03:32.569Z,17.40
2022-10-13T05:05:59.293Z,18.73
2022-10-13T05:08:26.619Z,18.50
2022-10-13T05:10:57.936Z,18.83
2022-10-13T05:13:25.973Z,20.30
2022-10-13T05:15:52.558Z,23.37
2022-10-13T05:18:19.500Z,21.80
2022-10-13T05:20:46.805Z,20.37
2022-10-13T05:23:14.488Z,16.13
2022-10-13T05:25:41.155Z,18.97
2022-10-13T05:28:08.718Z,20.53
2022-10-13T05:30:35.824Z,27.03
2022-10-13T05:33:02.432Z,21.40
2022-10-13T05:35:29.055Z,21.30
2022-10-13T05:37:56.141Z,25.10
2022-10-13T05:40:22.953Z,19.50
2022-10-13T05:42:51.440Z,22.20
2022-10-13T05:45:19.505Z,24.10
2022-10-13T05:47:46.218Z,22.87
2022-10-13T05:50:13.421Z,17.60
2022-10-13T05:52:40.941Z,16.97
2022-10-13T05:55:10.544Z,18.20
2022-10-13T05:57:42.345Z,24.83
2022-10-13T06:00:15.521Z,19.30
2022-10-13T06:02:57.131Z,21.50
2022-10-13T06:05:27.186Z,18.60
2022-10-13T06:07:55.657Z,25.47
2022-10-13T06:10:23.601Z,25.47
2022-10-13T06:12:50.469Z,22.30
2022-10-13T06:15:17.203Z,18.90
2022-10-13T06:17:43.930Z,24.10
2022-10-13T06:20:11.332Z,18.47
2022-10-13T06:22:38.748Z,19.80
2022-10-13T06:25:06.608Z,21.03
2022-10-13T06:27:33.272Z,17.63
2022-10-13T06:29:59.919Z,22.47
2022-10-13T06:32:26.773Z,26.73
2022-10-13T06:34:53.463Z,19.90
2022-10-13T06:37:23.435Z,26.40
2022-10-13T06:39:53.673Z,18.40
2022-10-13T06:42:20.753Z,20.03
2022-10-13T06:44:47.735Z,17.07
2022-10-13T06:47:14.595Z,21.60
2022-10-13T06:49:41.206Z,24.23
2022-10-13T06:52:09.289Z,18.17
2022-10-13T06:54:36.110Z,18.30
2022-10-13T06:57:06.024Z,21.43
2022-10-13T06:59:32.587Z,16.13
2022-10-13T07:01:59.345Z,26.50
2022-10-13T07:04:27.849Z,17.63
2022-10-13T07:06:54.582Z,21.10
2022-10-13T07:09:21.463Z,27.60
2022-10-13T07:11:48.268Z,22.23
2022-10-13T07:14:15.030Z,21.50
2022-10-13T07:16:41.890Z,16.07
2022-10-13T07:19:08.930Z,29.10
2022-10-13T07:21:35.750Z,19.40
2022-10-13T07:24:03.948Z,18.20
2022-10-13T07:26:33.786Z,19.60
2022-10-13T07:29:00.898Z,35.73
2022-10-13T07:31:28.198Z,20.20
2022-10-13T07:33:57.277Z,19.17
2022-10-13T07:36:23.932Z,22.10
2022-10-13T07:38:50.583Z,18.70
2022-10-13T07:41:17.474Z,19.10
2022-10-13T07:43:44.389Z,19.80
2022-10-13T07:46:12.778Z,20.63
2022-10-13T07:48:40.229Z,19.60
2022-10-13T07:51:09.444Z,26.53
2022-10-13T07:53:36.617Z,21.17
2022-10-13T07:56:06.206Z,22.20
2022-10-13T07:58:33.771Z,23.00
2022-10-13T08:01:01.823Z,19.90
2022-10-13T08:03:29.139Z,18.03
2022-10-13T08:05:58.185Z,16.60
2022-10-13T08:08:24.854Z,20.13
2022-10-13T08:10:51.586Z,22.73
2022-10-13T08:13:18.260Z,21.17
2022-10-13T08:15:46.377Z,26.00
2022-10-13T08:18:14.374Z,21.90
2022-10-13T08:20:45.511Z,21.67
2022-10-13T08:23:13.701Z,19.90
2022-10-13T08:25:41.603Z,19.93
2022-10-13T08:28:34.546Z,18.83
2022-10-13T08:31:01.996Z,20.23
2022-10-13T08:33:28.682Z,15.93
2022-10-13T08:35:56.369Z,22.10
2022-10-13T08:38:23.037Z,16.63
2022-10-13T08:40:50.997Z,19.73
2022-10-13T08:43:20.927Z,22.93
2022-10-13T08:45:51.152Z,19.47
2022-10-13T08:48:32.228Z,19.00
2022-10-13T08:51:03.093Z,23.50
2022-10-13T08:53:36.874Z,21.67
2022-10-13T08:56:08.265Z,23.40
2022-10-13T08:58:36.570Z,23.50
2022-10-13T09:01:09.447Z,20.50
2022-10-13T09:03:47.823Z,20.00
2022-10-13T09:06:32.066Z,22.20
2022-10-13T09:09:01.358Z,16.67
2022-10-13T09:11:32.371Z,26.70
2022-10-13T09:14:01.439Z,16.60
2022-10-13T09:16:46.847Z,20.90
2022-10-13T09:19:24.389Z,24.83
2022-10-13T09:22:17.792Z,21.03
2022-10-13T09:24:44.961Z,17.97
2022-10-13T09:27:16.373Z,21.43
2022-10-13T09:29:44.425Z,23.47
2022-10-13T09:32:21.805Z,21.87
2022-10-13T09:34:49.294Z,19.87
2022-10-13T09:37:23.396Z,21.50
2022-10-13T09:40:19.493Z,18.57
2022-10-13T09:42:55.269Z,24.63
2022-10-13T09:45:24.218Z,16.87
2022-10-13T09:48:02.976Z,17.20
2022-10-13T09:50:32.228Z,16.10
2022-10-13T09:53:17.733Z,32.00
2022-10-13T09:55:48.460Z,19.90
2022-10-13T09:58:29.776Z,21.30
2022-10-13T10:00:57.818Z,20.17
2022-10-13T10:03:32.676Z,18.07
2022-10-13T10:06:04.023Z,17.60
2022-10-13T10:09:04.911Z,18.10
2022-10-13T10:11:43.949Z,24.13
2022-10-13T10:14:29.590Z,18.13
2022-10-13T10:17:05.381Z,18.90
2022-10-13T10:19:56.177Z,18.10
2022-10-13T10:22:42.651Z,17.70
2022-10-13T10:25:23.621Z,20.77
2022-10-13T10:28:16.435Z,15.33
2022-10-13T10:31:06.276Z,13.20
2022-10-13T10:33:53.672Z,16.00
2022-10-13T10:36:27.458Z,20.27
2022-10-13T10:39:09.474Z,22.07
2022-10-13T10:41:54.329Z,17.33
2022-10-13T10:44:34.812Z,12.00
2022-10-13T10:47:07.114Z,18.93
2022-10-13T10:49:36.719Z,14.20
2022-10-13T10:52:08.174Z,17.13
2022-10-13T10:55:13.955Z,13.33
2022-10-13T10:57:55.553Z,13.00
2022-10-13T11:00:23.551Z,15.63
2022-10-13T11:03:06.954Z,12.50
2022-10-13T11:06:04.030Z,16.93
2022-10-13T11:08:30.591Z,12.40
2022-10-13T11:11:26.716Z,13.77
2022-10-13T11:14:07.469Z,13.17
2022-10-13T11:16:58.677Z,13.53
2022-10-13T11:19:39.352Z,14.13
2022-10-13T11:22:05.958Z,17.97
2022-10-13T11:24:41.265Z,10.50
2022-10-13T11:27:07.819Z,13.80
2022-10-13T11:29:51.502Z,16.17
2022-10-13T11:32:41.759Z,12.80
2022-10-13T11:35:08.324Z,18.00
2022-10-13T11:38:06.773Z,12.13
2022-10-13T11:40:38.009Z,16.47
2022-10-13T11:43:16.764Z,15.20
2022-10-13T11:46:05.033Z,13.37
2022-10-13T11:48:41.258Z,17.53
2022-10-13T11:51:29.126Z,19.17
2022-10-13T11:54:10.443Z,12.03
2022-10-13T11:56:50.457Z,13.73
2022-10-13T11:59:21.481Z,14.70
2022-10-13T12:01:52.637Z,10.23
2022-10-13T12:04:22.305Z,13.80
2022-10-13T12:06:57.152Z,10.40
2022-10-13T12:09:24.477Z,8.67
2022-10-13T12:12:14.793Z,21.13
2022-10-13T12:14:44.168Z,15.23
2022-10-13T12:17:33.143Z,10.13
2022-10-13T12:20:03.637Z,9.60
2022-10-13T12:22:30.697Z,12.03
2022-10-13T12:25:07.129Z,14.40
2022-10-13T12:27:46.556Z,10.40
2022-10-13T12:30:39.601Z,8.73
2022-10-13T12:33:25.838Z,9.90
2022-10-13T12:35:52.577Z,11.37
2022-10-13T12:38:20.952Z,10.73
2022-10-13T12:40:49.417Z,14.00
2022-10-13T12:43:20.373Z,13.47
2022-10-13T12:45:47.014Z,10.33
2022-10-13T12:48:34.153Z,12.67
2022-10-13T12:51:23.216Z,8.90
2022-10-13T12:53:50.319Z,15.40
2022-10-13T12:56:30.989Z,10.03
2022-10-13T12:58:59.164Z,10.53
2022-10-13T13:01:32.991Z,12.40
2022-10-13T13:04:19.046Z,11.63
2022-10-13T13:07:00.688Z,9.70
2022-10-13T13:09:35.724Z,10.97
2022-10-13T13:12:11.077Z,9.37
2022-10-13T13:14:40.967Z,9.30
2022-10-13T13:17:11.224Z,13.80
2022-10-13T13:19:38.430Z,10.43
2022-10-13T13:22:06.205Z,9.00
2022-10-13T13:24:39.939Z,12.97
2022-10-13T13:27:21.746Z,12.23
2022-10-13T13:29:49.112Z,12.00
2022-10-13T13:32:20.137Z,12.57
2022-10-13T13:34:47.564Z,12.57
2022-10-13T13:37:25.170Z,8.53
2022-10-13T13:39:52.179Z,9.30
2022-10-13T13:42:19.135Z,8.80
2022-10-13T13:44:45.787Z,9.60
2022-10-13T13:47:23.909Z,8.77
2022-10-13T13:49:53.815Z,9.13
2022-10-13T13:52:34.465Z,10.00
2022-10-13T13:55:03.687Z,13.73
2022-10-13T13:57:38.516Z,8.80
2022-10-13T14:00:06.149Z,10.00
2022-10-13T14:02:35.908Z,10.47
2022-10-13T14:05:05.799Z,6.47
2022-10-13T14:07:32.630Z,12.10
2022-10-13T14:10:01.890Z,9.97
2022-10-13T14:12:30.696Z,6.90
2022-10-13T14:14:58.479Z,10.00
2022-10-13T14:17:54.199Z,11.63
2022-10-13T14:20:26.830Z,12.30
2022-10-13T14:22:53.729Z,13.70
2022-10-13T14:25:20.891Z,11.30
2022-10-13T14:27:50.925Z,9.97
2022-10-13T14:30:17.721Z,11.37
2022-10-13T14:32:44.481Z,16.60
2022-10-13T14:35:11.374Z,12.60
2022-10-13T14:37:38.570Z,11.47
2022-10-13T14:40:06.064Z,11.47
2022-10-13T14:42:32.754Z,12.33
2022-10-13T14:44:59.508Z,13.50
2022-10-13T14:47:28.367Z,12.60
2022-10-13T14:49:55.113Z,10.83
2022-10-13T14:52:21.851Z,11.67
2022-10-13T14:54:52.239Z,9.40
2022-10-13T14:57:22.889Z,14.60
2022-10-13T14:59:51.902Z,11.70
2022-10-13T15:02:21.181Z,9.73
2022-10-13T15:04:47.884Z,9.80
2022-10-13T15:07:14.491Z,13.07
2022-10-13T15:10:06.618Z,11.40
2022-10-13T15:12:28.532Z,10.10
2022-10-13T15:14:55.271Z,14.33
2022-10-13T15:17:21.902Z,10.73
2022-10-13T15:19:48.564Z,11.07
2022-10-13T15:22:15.312Z,12.10
2022-10-13T15:24:43.278Z,10.50
2022-10-13T15:27:10.196Z,15.73
2022-10-13T15:29:36.844Z,14.13
2022-10-13T15:32:17.627Z,18.00
2022-10-13T15:34:47.486Z,13.30
2022-10-13T15:37:14.280Z,14.37
2022-10-13T15:39:41.080Z,15.60
2022-10-13T15:42:07.908Z,14.70
2022-10-13T15:44:57.297Z,15.57
2022-10-13T15:47:21.476Z,25.57
2022-10-13T15:49:48.207Z,16.10
2022-10-13T15:52:14.971Z,14.40
2022-10-13T15:54:41.771Z,16.40
2022-10-13T15:57:08.521Z,21.07
2022-10-13T15:59:35.244Z,14.13
2022-10-13T16:02:02.189Z,16.67
2022-10-13T16:04:32.310Z,18.20
2022-10-13T16:07:01.685Z,15.13
2022-10-13T16:09:28.332Z,17.47
2022-10-13T16:11:55.212Z,15.70
2022-10-13T16:14:21.875Z,17.87
2022-10-13T16:16:49.277Z,17.10
2022-10-13T16:19:16.018Z,16.97
2022-10-13T16:21:42.819Z,25.40
2022-10-13T16:24:11.702Z,20.60
2022-10-13T16:26:38.387Z,16.67
2022-10-13T16:29:05.066Z,21.70
2022-10-13T16:31:37.207Z,25.77
2022-10-13T16:34:09.837Z,19.13
2022-10-13T16:43:21.479Z,17.30
2022-10-13T16:49:07.864Z,18.90
2022-10-13T16:51:34.521Z,17.47
2022-10-13T16:54:04.440Z,20.90
2022-10-13T16:56:31.677Z,21.53
2022-10-13T16:59:00.748Z,24.60
2022-10-13T17:01:28.094Z,19.13
2022-10-13T17:03:55.234Z,18.63
2022-10-13T17:06:23.956Z,25.67
2022-10-13T17:08:50.865Z,20.83
2022-10-13T17:11:20.392Z,20.70
2022-10-13T17:13:47.857Z,20.83
2022-10-13T17:16:15.011Z,17.60
2022-10-13T17:18:41.895Z,25.20
2022-10-13T17:21:11.620Z,21.70
2022-10-13T17:23:38.654Z,17.80
2022-10-13T17:26:10.143Z,21.07
2022-10-13T17:28:37.842Z,20.83
2022-10-13T17:31:19.777Z,23.37
2022-10-13T17:33:47.685Z,21.03
2022-10-13T17:36:17.787Z,27.00
2022-10-13T17:38:45.182Z,20.80
2022-10-13T17:41:14.462Z,20.10
2022-10-13T17:43:42.216Z,23.03
2022-10-13T17:46:35.512Z,33.27
2022-10-13T17:49:03.250Z,40.77
2022-10-13T17:51:30.072Z,28.57
2022-10-13T17:54:00.649Z,29.80
2022-10-13T17:56:28.561Z,31.07
2022-10-13T17:58:55.827Z,24.83
2022-10-13T18:01:34.147Z,26.27
2022-10-13T18:04:03.634Z,21.40
2022-10-13T18:06:38.516Z,21.30
2022-10-13T18:09:11.539Z,23.37
2022-10-13T18:11:39.179Z,21.67
2022-10-13T18:14:06.755Z,27.23
2022-10-13T18:16:36.250Z,24.40
2022-10-13T18:19:03.477Z,22.33
2022-10-13T18:21:31.064Z,22.20
2022-10-13T18:24:00.831Z,24.33
2022-10-13T18:26:29.443Z,21.20
2022-10-13T18:28:57.213Z,26.27
2022-10-13T18:31:29.862Z,26.50
2022-10-13T18:33:59.683Z,25.60
2022-10-13T18:36:34.222Z,21.53
2022-10-13T18:39:07.606Z,25.77
2022-10-13T18:41:36.083Z,24.10
2022-10-13T18:44:06.331Z,24.20
2022-10-13T18:46:34.162Z,25.13
2022-10-13T18:49:00.892Z,24.80
2022-10-13T18:51:33.404Z,21.47
2022-10-13T18:54:02.986Z,27.60
2022-10-13T18:56:31.210Z,19.03
2022-10-13T18:59:00.249Z,27.90
2022-10-13T19:01:30.037Z,25.67
2022-10-13T19:03:57.333Z,27.10
2022-10-13T19:06:26.803Z,26.70
2022-10-13T19:09:00.658Z,31.40
2022-10-13T19:11:29.035Z,23.23
2022-10-13T19:13:57.333Z,20.17
2022-10-13T19:16:26.017Z,31.27
2022-10-13T19:18:53.010Z,29.70
2022-10-13T19:21:21.162Z,21.27
2022-10-13T19:23:48.691Z,26.70
2022-10-13T19:26:24.581Z,28.17
2022-10-13T19:28:56.942Z,29.00
2022-10-13T19:31:26.176Z,30.33
2022-10-13T19:33:53.313Z,34.53
2022-10-13T19:36:32.300Z,36.57
2022-10-13T19:39:00.056Z,27.57
2022-10-13T19:41:31.865Z,27.00
2022-10-13T19:43:59.006Z,31.37
2022-10-13T19:46:25.817Z,25.57
2022-10-13T19:48:52.719Z,25.50
2022-10-13T19:51:19.427Z,24.37
2022-10-13T19:53:46.185Z,27.73
2022-10-13T19:56:27.173Z,30.73
2022-10-13T19:58:54.654Z,27.93
2022-10-13T20:01:22.315Z,25.27
2022-10-13T20:03:49.980Z,25.93
2022-10-13T20:06:17.190Z,23.97
2022-10-13T20:08:45.122Z,24.80
2022-10-13T20:11:17.217Z,23.57
2022-10-13T20:13:47.413Z,26.67
2022-10-13T20:16:17.156Z,23.43
2022-10-13T20:18:44.281Z,26.43
2022-10-13T20:21:12.948Z,24.60
2022-10-13T20:23:40.868Z,21.20
2022-10-13T20:26:10.647Z,21.13
2022-10-13T20:28:43.095Z,21.60
2022-10-13T20:31:10.919Z,22.40
2022-10-13T20:33:37.651Z,24.97
2022-10-13T20:36:06.854Z,25.43
2022-10-13T20:38:37.670Z,23.07
2022-10-13T20:41:19.939Z,21.47
2022-10-13T20:43:48.059Z,19.73
2022-10-13T20:46:17.016Z,27.97
2022-10-13T20:49:09.778Z,23.93
2022-10-13T20:51:31.354Z,27.13
2022-10-13T20:53:58.179Z,21.87
2022-10-13T20:56:26.362Z,23.40
2022-10-13T20:58:53.851Z,25.23
2022-10-13T21:01:21.999Z,22.77
2022-10-13T21:03:55.485Z,23.60
2022-10-13T21:06:23.567Z,28.20
2022-10-13T21:08:50.544Z,23.63
2022-10-13T21:11:18.749Z,24.83
2022-10-13T21:13:45.844Z,26.97
2022-10-13T21:16:17.626Z,23.40
2022-10-13T21:18:49.181Z,21.80
2022-10-13T21:21:18.766Z,23.73
2022-10-13T21:23:46.030Z,23.10
2022-10-13T21:26:16.238Z,21.50
2022-10-13T21:28:45.772Z,23.00
2022-10-13T21:31:14.511Z,22.60
2022-10-13T21:33:42.355Z,23.97
2022-10-13T21:36:15.179Z,27.80
2022-10-13T21:38:43.431Z,24.87
2022-10-13T21:41:11.911Z,27.07
2022-10-13T21:43:38.946Z,28.53
2022-10-13T21:46:11.951Z,30.90
2022-10-13T21:48:39.344Z,25.77
2022-10-13T21:51:21.056Z,28.20
2022-10-13T21:53:55.395Z,34.87
2022-10-13T21:56:23.331Z,27.97
2022-10-13T21:58:50.373Z,26.20
2022-10-13T22:01:18.261Z,21.90
2022-10-13T22:03:47.066Z,30.70
2022-10-13T22:06:19.216Z,27.20
2022-10-13T22:08:48.379Z,27.50
2022-10-13T22:11:16.590Z,25.13
2022-10-13T22:13:43.418Z,29.83
2022-10-13T22:16:13.282Z,26.10
2022-10-13T22:18:40.464Z,22.83
2022-10-13T22:21:10.899Z,26.40
2022-10-13T22:23:37.621Z,29.13
2022-10-13T22:26:04.497Z,25.63
2022-10-13T22:28:36.791Z,28.40
2022-10-13T22:31:08.402Z,32.70
2022-10-13T22:33:36.660Z,28.53
2022-10-13T22:36:16.316Z,27.37
2022-10-13T22:38:47.369Z,25.80
2022-10-13T22:41:15.333Z,24.10
2022-10-13T22:43:44.294Z,34.77
2022-10-13T22:46:12.927Z,27.70
2022-10-13T22:48:41.045Z,25.23
2022-10-13T22:51:08.762Z,30.70
2022-10-13T22:53:35.758Z,31.13
2022-10-13T22:56:07.913Z,25.80
2022-10-13T22:58:35.628Z,26.57
2022-10-13T23:01:14.481Z,29.50
2022-10-13T23:03:42.014Z,25.97
2022-10-13T23:06:13.510Z,23.80
2022-10-13T23:08:40.332Z,34.90
2022-10-13T23:11:07.496Z,26.30
2022-10-13T23:13:34.635Z,25.40
2022-10-13T23:16:16.290Z,28.60
2022-10-13T23:18:43.468Z,27.47
2022-10-13T23:21:13.959Z,27.70
2022-10-13T23:23:41.850Z,33.53
2022-10-13T23:26:14.669Z,27.07
2022-10-13T23:28:42.203Z,30.33
2022-10-13T23:31:12.855Z,32.90
2022-10-13T23:33:40.115Z,33.43
2022-10-13T23:36:07.544Z,29.90
2022-10-13T23:38:34.660Z,29.97
2022-10-13T23:41:09.067Z,30.10
2022-10-13T23:43:36.091Z,31.00
2022-10-13T23:46:03.478Z,30.70
2022-10-13T23:48:30.391Z,27.60
2022-10-13T23:50:57.939Z,27.00
2022-10-13T23:53:25.178Z,30.87
2022-10-13T23:55:52.050Z,29.77
2022-10-13T23:58:18.842Z,27.53
